Time;durP1;ratioP1;P1;durP2;ratioP2;P2;SDS_P1;SDS_P2;PMS_P1;PMS_P2;Temp;Humidity;BMP_temperature;BMP_pressure;BME280_temperature;BME280_humidity;BME280_pressure;Samples;Min_cycle;Max_cycle;Signal;HPM_P1;HPM_P2
2023/07/31 00:08:16;;;;;;;7.90;4.10;;;;;;;18.59;73.96;98154.24;435194;1257;99249;-40
2023/07/31 00:18:23;;;;;;;6.50;3.70;;;;;;;18.38;73.95;98167.89;434925;1252;455409;-42
2023/07/31 00:28:30;;;;;;;5.20;3.00;;;;;;;18.20;74.26;98177.05;435152;1252;99221;-42
2023/07/31 00:38:37;;;;;;;4.10;2.90;;;;;;;18.07;74.41;98175.33;435189;1256;111485;-41
2023/07/31 00:48:44;;;;;;;5.60;2.40;;;;;;;17.89;74.46;98177.09;435019;1256;107395;-41
2023/07/31 00:58:52;;;;;;;3.30;3.00;;;;;;;17.72;74.93;98187.55;435136;1256;98955;-41
2023/07/31 01:09:02;;;;;;;4.30;2.80;;;;;;;17.61;75.18;98195.24;435150;1256;107760;-42
2023/07/31 01:19:12;;;;;;;4.00;2.50;;;;;;;17.61;75.54;98199.14;435270;1253;99347;-42
2023/07/31 01:39:32;;;;;;;5.30;3.10;;;;;;;17.51;75.96;98207.55;435947;1255;108003;-44
2023/07/31 01:49:39;;;;;;;2.30;2.20;;;;;;;17.38;75.75;98207.30;434943;1257;98053;-43
2023/07/31 01:59:46;;;;;;;3.00;2.20;;;;;;;17.19;75.97;98209.64;435178;1257;108260;-42
2023/07/31 02:09:53;;;;;;;4.60;2.00;;;;;;;17.13;76.14;98211.20;435023;1266;99224;-41
2023/07/31 02:20:00;;;;;;;4.10;2.40;;;;;;;17.10;76.33;98210.76;435040;1258;112897;-43
2023/07/31 02:30:07;;;;;;;2.60;2.40;;;;;;;17.02;76.44;98224.13;434936;1256;108357;-43
2023/07/31 02:40:13;;;;;;;4.10;2.40;;;;;;;16.92;76.62;98236.45;435211;1257;99211;-43
2023/07/31 02:50:20;;;;;;;3.60;2.60;;;;;;;16.92;76.57;98248.63;435186;1257;108863;-42
2023/07/31 03:00:28;;;;;;;5.00;2.40;;;;;;;16.89;76.86;98244.44;434938;1257;100886;-42
2023/07/31 03:10:34;;;;;;;7.00;2.20;;;;;;;16.88;77.07;98239.42;435121;1258;112246;-44
2023/07/31 03:20:43;;;;;;;5.50;2.70;;;;;;;16.84;77.25;98249.70;434957;1254;107990;-44
2023/07/31 03:30:50;;;;;;;5.00;2.60;;;;;;;16.82;77.39;98255.59;435031;1266;99207;-42
2023/07/31 03:40:58;;;;;;;6.70;2.60;;;;;;;16.63;77.39;98262.02;435097;1257;108361;-42
2023/07/31 03:51:04;;;;;;;;;;;;;;;16.67;77.30;98270.75;434970;1257;98826;-41
2023/07/31 04:01:11;;;;;;;2.80;2.30;;;;;;;16.92;77.25;98276.77;435017;1259;109682;-43
2023/07/31 04:11:17;;;;;;;3.80;2.40;;;;;;;17.11;77.08;98282.23;435130;1257;107806;-43
2023/07/31 04:21:22;;;;;;;6.00;2.90;;;;;;;17.08;77.20;98290.91;435217;1253;98501;-43
2023/07/31 04:31:29;;;;;;;3.90;2.90;;;;;;;17.05;77.09;98295.96;435218;1254;107812;-42
2023/07/31 04:41:36;;;;;;;4.80;2.30;;;;;;;16.99;76.89;98306.04;435043;1256;98829;-43
2023/07/31 04:51:43;;;;;;;3.30;2.60;;;;;;;17.10;77.34;98303.60;435123;1257;111761;-43
2023/07/31 05:01:51;;;;;;;3.50;1.90;;;;;;;17.41;77.22;98290.71;435008;1254;108095;-42
2023/07/31 05:22:05;;;;;;;5.80;2.60;;;;;;;17.76;77.03;98286.23;435121;1257;108354;-43
2023/07/31 05:32:12;;;;;;;6.40;2.70;;;;;;;17.75;76.89;98299.23;435280;1257;99234;-42
2023/07/31 05:42:20;;;;;;;4.00;1.70;;;;;;;17.97;76.70;98297.70;435236;1256;110642;-43
2023/07/31 06:12:37;;;;;;;5.80;2.80;;;;;;;19.11;75.94;98298.65;435107;1256;107773;-42
2023/07/31 06:22:44;;;;;;;7.60;2.70;;;;;;;20.10;75.64;98293.91;435348;1254;99413;-43
2023/07/31 06:32:51;;;;;;;5.50;2.00;;;;;;;20.96;74.26;98294.73;435142;1256;111370;-43
2023/07/31 06:42:58;;;;;;;3.30;2.10;;;;;;;21.47;73.59;98295.77;435403;1257;108120;-43
2023/07/31 07:03:10;;;;;;;4.60;2.80;;;;;;;22.92;70.59;98299.77;435281;1253;106917;-41
2023/07/31 07:13:18;;;;;;;3.50;1.50;;;;;;;23.42;69.41;98301.86;435257;1257;99218;-42
2023/07/31 07:23:26;;;;;;;4.50;1.80;;;;;;;23.94;67.61;98301.19;435334;1256;111882;-41
2023/07/31 07:33:33;;;;;;;5.10;1.80;;;;;;;24.07;65.71;98304.49;435147;1256;109431;-41
2023/07/31 07:43:40;;;;;;;6.20;1.70;;;;;;;24.22;63.81;98309.79;435255;1253;99219;-41
2023/07/31 07:53:46;;;;;;;;;;;;;;;24.67;62.37;98306.04;435168;1256;108785;-42
2023/07/31 08:14:00;;;;;;;3.50;1.70;;;;;;;25.61;58.35;98304.97;435303;1254;111782;-41
2023/07/31 08:24:08;;;;;;;4.70;1.30;;;;;;;25.74;57.21;98305.95;435136;1252;109415;-41
2023/07/31 08:34:15;;;;;;;2.70;1.60;;;;;;;25.86;55.66;98306.44;435177;1253;99250;-42
2023/07/31 08:54:30;;;;;;;3.70;1.90;;;;;;;25.28;54.37;98304.66;435830;1254;99214;-41
2023/07/31 09:04:37;;;;;;;3.60;1.20;;;;;;;25.53;54.08;98300.52;435254;1253;112345;-46
2023/07/31 09:34:56;;;;;;;3.70;1.70;;;;;;;26.02;51.73;98285.42;435051;1267;107763;-41
2023/07/31 09:45:08;;;;;;;4.70;1.70;;;;;;;26.43;51.00;98280.71;435290;1253;99368;-41
2023/07/31 09:55:15;;;;;;;10.80;1.60;;;;;;;26.67;50.13;98292.88;435278;1256;110716;-42
2023/07/31 10:05:22;;;;;;;2.30;1.30;;;;;;;26.00;49.45;98293.00;435313;1256;108464;-41
2023/07/31 10:15:29;;;;;;;2.70;1.40;;;;;;;26.06;49.76;98272.84;435208;1254;99167;-42
2023/07/31 10:25:38;;;;;;;3.30;1.30;;;;;;;26.51;49.16;98249.75;435377;1254;108853;-41
2023/07/31 10:35:45;;;;;;;4.10;1.60;;;;;;;26.84;48.37;98247.20;435384;1256;98004;-41
2023/07/31 10:45:51;;;;;;;6.90;1.50;;;;;;;27.11;46.89;98239.81;435281;1253;111778;-41
2023/07/31 10:55:59;;;;;;;1.90;1.20;;;;;;;27.00;46.48;98229.98;435105;1254;108238;-43
2023/07/31 11:06:05;;;;;;;2.90;1.70;;;;;;;26.98;45.69;98219.61;435350;1256;98004;-42
2023/07/31 11:16:11;;;;;;;;;;;;;;;27.11;44.85;98211.81;435308;1256;108483;-42
2023/07/31 11:26:19;;;;;;;5.30;1.90;;;;;;;26.93;44.09;98208.33;435194;1256;99208;-42
2023/07/31 11:36:26;;;;;;;4.00;1.40;;;;;;;26.77;44.72;98201.59;435365;1256;110593;-42
2023/07/31 11:56:39;;;;;;;5.60;1.50;;;;;;;26.61;43.36;98181.34;435339;1254;98495;-41
2023/07/31 12:06:48;;;;;;;2.80;1.20;;;;;;;26.80;43.06;98178.14;435346;1252;108692;-42
2023/07/31 12:17:00;;;;;;;1.70;1.10;;;;;;;26.51;42.69;98173.92;434910;1254;367421;-40
2023/07/31 12:37:16;;;;;;;8.10;1.90;;;;;;;25.50;43.63;98149.73;435255;1253;108504;-40
2023/07/31 12:47:22;;;;;;;8.30;1.70;;;;;;;25.36;43.84;98145.46;435275;1254;99221;-42
2023/07/31 12:57:29;;;;;;;3.60;1.20;;;;;;;25.74;44.61;98138.81;435301;1254;108395;-41
2023/07/31 13:07:35;;;;;;;;;;;;;;;25.84;44.02;98129.56;435205;1256;98836;-40
2023/07/31 13:27:48;;;;;;;2.70;0.90;;;;;;;25.21;44.04;98118.12;435120;1254;108400;-42
2023/07/31 13:37:56;;;;;;;6.90;1.20;;;;;;;25.04;45.14;98111.09;435281;1257;99327;-41
2023/07/31 13:48:02;;;;;;;4.40;1.30;;;;;;;25.19;45.37;98107.64;435367;1254;108523;-42
2023/07/31 13:58:09;;;;;;;2.00;1.10;;;;;;;25.28;45.52;98105.84;435215;1254;98698;-42
2023/07/31 14:08:17;;;;;;;11.30;1.70;;;;;;;24.97;45.09;98107.55;435229;1254;110813;-42
2023/07/31 14:18:24;;;;;;;2.50;1.80;;;;;;;24.76;45.96;98109.13;435270;1253;108088;-42
2023/07/31 14:28:31;;;;;;;2.50;1.50;;;;;;;24.89;46.53;98095.21;435240;1256;98664;-40
2023/07/31 14:38:37;;;;;;;1.70;1.60;;;;;;;24.84;46.38;98094.41;435193;1254;108158;-41
2023/07/31 14:58:48;;;;;;;2.30;2.00;;;;;;;25.25;46.44;98084.86;435173;1256;111126;-42
2023/07/31 15:08:56;;;;;;;4.60;2.50;;;;;;;25.17;46.17;98080.23;435173;1258;108356;-42
2023/07/31 15:19:01;;;;;;;7.10;2.50;;;;;;;25.25;46.07;98076.28;435255;1257;99255;-42
2023/07/31 15:39:14;;;;;;;2.70;2.00;;;;;;;24.96;46.07;98072.48;435162;1252;99321;-41
2023/07/31 15:49:21;;;;;;;3.50;2.10;;;;;;;24.68;46.23;98064.23;435297;1255;112342;-43
2023/07/31 15:59:28;;;;;;;2.40;2.20;;;;;;;24.45;46.67;98051.85;435158;1256;110796;-42
2023/07/31 16:09:34;;;;;;;;;;;;;;;24.18;47.19;98035.98;435225;1256;99106;-43
2023/07/31 16:19:41;;;;;;;3.50;2.40;;;;;;;24.08;47.30;98032.17;435257;1254;109140;-42
2023/07/31 16:29:48;;;;;;;3.20;2.80;;;;;;;23.99;47.35;98029.17;435115;1257;98040;-42
2023/07/31 16:39:54;;;;;;;;;;;;;;;23.60;47.38;98025.58;435363;1256;112223;-42
2023/07/31 16:50:03;;;;;;;4.60;2.40;;;;;;;23.22;47.97;98017.36;435136;1256;107596;-42
2023/07/31 17:00:12;;;;;;;3.50;3.10;;;;;;;22.96;48.45;98012.18;435313;1253;99960;-42
2023/07/31 17:10:19;;;;;;;4.40;3.20;;;;;;;22.85;49.14;98009.28;435250;1254;107542;-43
2023/07/31 17:20:26;;;;;;;5.40;3.10;;;;;;;22.82;49.39;98010.08;435193;1254;99129;-42
2023/07/31 17:30:30;;;;;;;3.90;3.50;;;;;;;22.78;49.79;98016.81;435221;1256;112766;-42
2023/07/31 17:40:38;;;;;;;5.60;4.00;;;;;;;22.57;50.22;98021.16;435218;1254;108481;-43
2023/07/31 17:50:50;;;;;;;6.10;4.10;;;;;;;22.38;50.51;98020.44;435175;1252;99253;-42
2023/07/31 18:11:05;;;;;;;5.90;2.80;;;;;;;21.74;51.27;98039.11;435159;1254;97981;-43
2023/07/31 18:21:11;;;;;;;4.40;2.90;;;;;;;21.46;51.70;98044.23;435168;1254;112049;-42
2023/07/31 18:31:17;;;;;;;6.30;3.10;;;;;;;21.10;52.49;98050.95;435278;1256;106870;-43
2023/07/31 18:41:24;;;;;;;4.70;3.30;;;;;;;20.69;53.47;98045.36;435435;1256;99224;-42
2023/07/31 18:51:37;;;;;;;7.70;3.50;;;;;;;20.40;54.44;98048.38;435321;1256;109356;-42
2023/07/31 19:01:45;;;;;;;6.30;4.90;;;;;;;20.31;54.90;98052.82;435351;1256;98007;-42
2023/07/31 19:21:59;;;;;;;8.40;5.50;;;;;;;20.08;56.02;98059.64;435138;1254;107592;-43
2023/07/31 19:42:14;;;;;;;10.10;6.40;;;;;;;19.49;56.54;98046.23;435158;1254;107949;-42
2023/07/31 19:52:21;;;;;;;9.40;6.60;;;;;;;19.28;57.25;98034.11;435223;1256;99310;-50
2023/07/31 20:02:27;;;;;;;10.70;6.30;;;;;;;19.00;57.70;98029.12;435121;1256;112084;-42
2023/07/31 20:12:36;;;;;;;9.60;6.30;;;;;;;18.70;58.59;98027.23;435134;1254;107463;-43
2023/07/31 20:22:43;;;;;;;14.50;8.70;;;;;;;18.43;59.02;98017.75;435138;1256;99113;-43
2023/07/31 20:32:49;;;;;;;13.60;6.40;;;;;;;18.18;59.93;98007.71;435035;1256;108329;-42
2023/07/31 20:42:59;;;;;;;9.00;5.10;;;;;;;18.05;60.59;97987.54;435071;1266;99317;-42
2023/07/31 20:53:04;;;;;;;17.10;5.50;;;;;;;18.06;60.92;97972.66;435195;1255;112123;-42
2023/07/31 21:03:11;;;;;;;9.40;6.60;;;;;;;17.96;61.56;97955.11;435158;1257;109098;-42
2023/07/31 21:13:19;;;;;;;14.50;9.00;;;;;;;17.82;62.28;97944.05;435232;1264;99569;-42
2023/07/31 21:23:26;;;;;;;14.70;9.30;;;;;;;17.73;62.72;97938.33;435087;1257;108513;-43
2023/07/31 21:43:40;;;;;;;19.00;10.10;;;;;;;17.57;63.87;97929.58;435082;1256;113015;-45
2023/07/31 21:53:47;;;;;;;15.50;9.10;;;;;;;17.45;64.11;97913.77;435078;1253;109385;-43
2023/07/31 22:03:54;;;;;;;9.30;6.50;;;;;;;17.35;64.54;97898.34;435071;1266;99324;-45
2023/07/31 22:14:01;;;;;;;13.20;7.90;;;;;;;17.22;65.47;97889.98;435101;1257;108712;-42
2023/07/31 22:24:05;;;;;;;12.20;6.30;;;;;;;17.06;65.86;97888.66;435130;1261;97997;-43
2023/07/31 22:34:12;;;;;;;10.60;6.40;;;;;;;17.04;66.07;97886.02;435040;1257;111692;-42
2023/07/31 22:44:20;;;;;;;14.00;6.20;;;;;;;17.00;66.33;97875.91;434998;1257;108617;-42
2023/07/31 22:54:26;;;;;;;12.40;5.90;;;;;;;16.93;66.98;97876.88;435006;1254;99253;-42
2023/07/31 23:04:33;;;;;;;10.00;5.20;;;;;;;16.97;67.64;97872.55;434976;1257;108427;-41
2023/07/31 23:14:40;;;;;;;14.90;6.10;;;;;;;17.03;67.76;97870.16;435132;1257;99165;-42
2023/07/31 23:24:47;;;;;;;10.80;5.70;;;;;;;16.97;68.13;97860.38;435077;1254;111925;-42
2023/07/31 23:34:54;;;;;;;9.50;5.70;;;;;;;16.98;68.69;97844.60;435069;1258;108498;-43
2023/07/31 23:55:16;;;;;;;11.60;6.40;;;;;;;17.09;68.38;97804.00;435022;1254;108597;-42
